Nearby METAR Reports

 

KIND - Indianapolis, Indiana, USA
Distance from station: SW 6mi, 9km
Updated: Jan 19 2019 8:34pm
Light snow, Blowing, Snow, Mist, Overcast
Light snow, Blowing, Snow, Mist, Overcast
 Wind from N
Wind: N 28 mph , 44 km/h, Gust: 45 mph , 72 km/h
Temperature: 21°F , -6°C
Wind Chill: 3°F , -16°C
Dew Point: 19°F , -7°C
Humidity: 93%
Barometer: 29.77 inHg , 1008.1 hPa
Summary: Light snow, Blowing, Snow, Mist
Clouds: Overcast
Visibility: 3/4 mile , 5 km
Cloud details: Few Clouds 800 ft
Overcast 1200 ft
2019/01/20 01:34 KIND 200134Z 01024G39KT 3/4SM R05L/P6000FT -SN BLSN BR FEW008 OVC012 M06/M07 A2977 RMK AO2 PK WND 36039/0132 P0002 T10561072 $
KEYE - Indianapolis, Indiana, USA
Distance from station: NW 5mi, 8km
Updated: Jan 19 2019 8:33pm
Mist, Overcast
Mist, Overcast
 Wind from N
Wind: N 25 mph , 41 km/h, Gust: 39 mph , 63 km/h
Temperature: 21°F , -6°C
Wind Chill: 4°F , -16°C
Dew Point: 18°F , -8°C
Humidity: 86%
Barometer: 29.77 inHg , 1008.1 hPa
Summary: Mist
Clouds: Overcast
Visibility: 1 mile , 2 km
Cloud details: Overcast 1600 ft
2019/01/20 01:33 KEYE 200133Z AUTO 36022G34KT 1SM BR VV016 M06/M08 A2977 RMK AO2 PK WND 36035/0108 T10561078 PWINO FZRANO $
 
KTYQ - Indianapolis Exc, Indiana, USA
Distance from station: N 17mi, 28km
Updated: Jan 19 2019 8:15pm
Light snow, Overcast
Light snow, Overcast
 Wind from N
Wind: N 7 mph , 11 km/h
Temperature: 21°F , -6°C
Wind Chill: 12°F , -11°C
Dew Point: 19°F , -7°C
Humidity: 93%
Barometer: 29.79 inHg , 1008.8 hPa
Summary: Light Snow
Clouds: Overcast
Visibility: 1 mile , 2 km
Cloud details: Overcast 600 ft
2019/01/20 01:15 KTYQ 200115Z AUTO 36006KT 1SM -SN OVC006 M06/M07 A2979 RMK AO2 T10651068
KGEZ - Shelbyville, Indiana, USA
Distance from station: ESE 27mi, 43km
Updated: Jan 19 2019 8:28pm
Mist, Overcast
Mist, Overcast
 Wind from N
Wind: N 23 mph , 37 km/h, Gust: 37 mph , 59 km/h
Temperature: 25°F , -4°C
Wind Chill: 10°F , -12°C
Dew Point: 19°F , -7°C
Humidity: 80%
Barometer: 29.70 inHg , 1005.8 hPa
Summary: Mist
Clouds: Overcast
Visibility: 3/4 mile , 5 km
Cloud details: Overcast 1000 ft
2019/01/20 01:28 KGEZ 200128Z AUTO 01020G32KT 3/4SM BR VV010 M04/M07 A2970 RMK AO2 PK WND 01037/0106 T10441067 PWINO FZRANO $
 
KAID - Anderson Municip, Indiana, USA
Distance from station: NE 40mi, 64km
Updated: Jan 19 2019 8:35pm
Light snow, Overcast
Light snow, Overcast
 Wind from NNE
Wind: NNE 9 mph , 15 km/h
Temperature: 21°F , -6°C
Wind Chill: 11°F , -12°C
Dew Point: 19°F , -7°C
Humidity: 93%
Barometer: 29.75 inHg , 1007.5 hPa
Summary: Light Snow
Clouds: Overcast
Visibility: 1 3/4 miles , 5 km
Cloud details: Overcast 1200 ft
2019/01/20 01:35 KAID 200135Z AUTO 02008KT 1 3/4SM -SN OVC012 M06/M07 A2975 RMK AO2 T10561070
KBAK - Columbus/Balkala, Indiana, USA
Distance from station: SSE 40mi, 64km
Updated: Jan 19 2019 8:45pm
Light snow, Mist, Overcast
Light snow, Mist, Overcast
 Wind from N
Wind: N 24 mph , 39 km/h, Gust: 32 mph , 52 km/h
Temperature: 23°F , -5°C
Wind Chill: 7°F , -14°C
Dew Point: 19°F , -7°C
Humidity: 86%
Barometer: 29.71 inHg , 1006.1 hPa
Summary: Light snow, Mist
Clouds: Overcast
Visibility: 2 miles , 3 km
Cloud details: Overcast 700 ft
2019/01/20 01:45 KBAK 200145Z 01021G28KT 2SM -SN BR OVC007 M05/M07 A2971
 
KBMG - Bloomington, Indiana, USA
Distance from station: SSW 48mi, 78km
Updated: Jan 19 2019 8:21pm
Snow, Freezing, Fog, Overcast
Snow, Freezing, Fog, Overcast
 Wind from N
Wind: N 23 mph , 37 km/h, Gust: 31 mph , 50 km/h
Temperature: 25°F , -4°C
Wind Chill: 10°F , -12°C
Dew Point: 25°F , -4°C
Humidity: 100%
Barometer: 29.71 inHg , 1006.1 hPa
Summary: Snow, Freezing, Fog
Clouds: Overcast
Visibility: 1/4 mile , 2 km
Cloud details: Overcast 500 ft
2019/01/20 01:21 KBMG 200121Z 01020G27KT 1/4SM SN FZFG VV005 M04/M04 A2971 RMK AO2 PK WND 02032/0111 SNE10B15 P0001 T10391044 $
KOKK - Kokomo, Indiana, USA
Distance from station: N 53mi, 85km
Updated: Jan 19 2019 8:18pm
Light snow, Mist, Overcast
Light snow, Mist, Overcast
 Wind from N
Wind: N 26 mph , 43 km/h, Gust: 36 mph , 57 km/h
Temperature: 21°F , -6°C
Wind Chill: 4°F , -16°C
Dew Point: 19°F , -7°C
Humidity: 93%
Barometer: 29.83 inHg , 1010.2 hPa
Summary: Light snow, Mist
Clouds: Overcast
Visibility: 2 miles , 3 km
Cloud details: Mostly Cloudy 1700 ft
Overcast 4200 ft
2019/01/20 01:18 KOKK 200118Z AUTO 01023G31KT 2SM -SN BR BKN017 OVC042 M06/M07 A2983 RMK AO2 PK WND 01031/0115 VIS 1 1/2V3 P0000 FZRANO